Time;durP1;ratioP1;P1;durP2;ratioP2;P2;SDS_P1;SDS_P2;PMS_P1;PMS_P2;Temp;Humidity;BMP_temperature;BMP_pressure;BME280_temperature;BME280_humidity;BME280_pressure;Samples;Min_cycle;Max_cycle;Signal;HPM_P1;HPM_P2
2021/05/14 00:00:24;;;;;;;10.48;7.78;;;16.80;76.90;;;;;;5081707;28;20427;-70
2021/05/14 00:02:52;;;;;;;10.55;8.23;;;16.70;77.10;;;;;;5086760;28;20425;-71
2021/05/14 00:05:18;;;;;;;11.97;8.47;;;16.70;77.90;;;;;;5084036;28;20461;-72
2021/05/14 00:07:45;;;;;;;11.73;8.25;;;16.70;77.30;;;;;;5084905;28;20752;-70
2021/05/14 00:10:12;;;;;;;11.25;8.05;;;16.70;77.90;;;;;;5084278;28;20417;-73
2021/05/14 00:12:39;;;;;;;11.48;8.30;;;16.70;77.50;;;;;;5084488;28;20428;-73
2021/05/14 00:15:07;;;;;;;10.68;7.70;;;16.70;77.50;;;;;;5083153;28;20604;-72
2021/05/14 00:17:34;;;;;;;11.57;8.07;;;16.70;77.50;;;;;;5085283;28;20468;-73
2021/05/14 00:20:03;;;;;;;11.05;7.80;;;16.70;77.10;;;;;;5083073;28;20848;-73
2021/05/14 00:22:29;;;;;;;10.57;7.80;;;16.70;77.20;;;;;;5087983;28;20436;-73
2021/05/14 00:24:56;;;;;;;11.43;8.10;;;16.70;76.90;;;;;;5083966;28;20931;-73
2021/05/14 00:27:22;;;;;;;11.35;8.68;;;16.70;76.70;;;;;;5086674;28;20428;-73
2021/05/14 00:29:48;;;;;;;11.38;8.45;;;16.70;76.50;;;;;;5058506;28;20822;-72
2021/05/14 00:32:15;;;;;;;10.50;8.35;;;16.60;76.50;;;;;;5085331;28;20432;-73
2021/05/14 00:34:41;;;;;;;11.60;8.60;;;16.60;77.30;;;;;;5066227;28;20461;-73
2021/05/14 00:37:08;;;;;;;11.82;8.60;;;16.60;77.10;;;;;;5081817;28;20423;-72
2021/05/14 00:39:35;;;;;;;10.70;8.98;;;16.50;77.00;;;;;;5077824;28;20425;-72
2021/05/14 00:42:01;;;;;;;12.13;9.10;;;16.40;76.80;;;;;;5081242;28;21239;-72
2021/05/14 00:44:29;;;;;;;12.40;9.10;;;16.40;77.20;;;;;;5083871;28;20426;-71
2021/05/14 00:46:57;;;;;;;11.20;8.77;;;16.30;77.10;;;;;;5084052;28;20425;-73
2021/05/14 00:49:23;;;;;;;12.20;9.10;;;16.30;77.50;;;;;;5084271;28;20783;-73
2021/05/14 00:51:51;;;;;;;10.98;8.75;;;16.30;78.00;;;;;;5086429;28;20294;-73
2021/05/14 00:54:19;;;;;;;11.32;8.10;;;15.80;78.90;;;;;;5083554;28;20217;-73
2021/05/14 00:56:45;;;;;;;11.30;8.88;;;15.50;79.90;;;;;;5100691;28;20673;-74
2021/05/14 00:59:12;;;;;;;10.88;8.43;;;15.30;80.70;;;;;;5083505;28;20559;-73
2021/05/14 01:01:38;;;;;;;11.35;7.78;;;15.10;81.30;;;;;;5081102;28;20213;-73
2021/05/14 01:04:05;;;;;;;12.15;8.30;;;14.90;81.70;;;;;;5080361;28;20277;-74
2021/05/14 01:06:32;;;;;;;11.40;8.57;;;14.90;82.20;;;;;;5066758;28;20214;-74
2021/05/14 01:09:01;;;;;;;12.27;8.68;;;14.80;82.50;;;;;;5083453;28;20708;-71
2021/05/14 01:11:28;;;;;;;14.18;9.05;;;14.70;82.80;;;;;;5083154;28;20665;-74
2021/05/14 01:13:57;;;;;;;13.23;8.70;;;14.70;83.00;;;;;;5083528;28;20334;-74
2021/05/14 01:16:23;;;;;;;15.35;9.18;;;14.60;83.10;;;;;;5064525;28;20212;-73
2021/05/14 01:18:50;;;;;;;13.48;9.32;;;14.60;83.40;;;;;;5084712;28;20198;-71
2021/05/14 01:21:17;;;;;;;12.88;9.40;;;14.60;83.70;;;;;;5068099;28;20291;-72
2021/05/14 01:23:44;;;;;;;12.48;9.50;;;14.50;83.90;;;;;;5067833;28;20202;-74
2021/05/14 01:26:12;;;;;;;12.50;9.07;;;14.50;84.10;;;;;;5087303;28;20198;-73
2021/05/14 01:28:39;;;;;;;13.93;9.30;;;14.50;84.40;;;;;;5082733;28;20255;-74
2021/05/14 01:31:05;;;;;;;14.52;9.52;;;14.40;84.60;;;;;;5068498;28;20233;-74
2021/05/14 01:33:32;;;;;;;10.80;8.82;;;14.40;84.80;;;;;;5078517;28;20285;-73
2021/05/14 01:35:59;;;;;;;12.13;9.15;;;14.40;85.20;;;;;;5086777;28;20205;-75
2021/05/14 01:38:27;;;;;;;12.68;9.30;;;14.40;85.50;;;;;;5099471;28;20206;-73
2021/05/14 01:40:53;;;;;;;14.07;9.40;;;14.40;85.60;;;;;;5065776;28;20226;-73
2021/05/14 01:43:20;;;;;;;13.60;8.77;;;14.30;85.80;;;;;;5083221;28;20207;-72
2021/05/14 01:45:46;;;;;;;14.30;9.02;;;14.30;85.90;;;;;;5082823;28;20331;-73
2021/05/14 01:48:13;;;;;;;12.52;8.88;;;14.30;85.90;;;;;;5075178;28;20202;-75
2021/05/14 01:50:40;;;;;;;13.52;9.18;;;14.30;86.10;;;;;;5096993;28;20255;-73
2021/05/14 01:53:07;;;;;;;10.38;9.20;;;14.30;86.30;;;;;;5080586;28;20226;-74
2021/05/14 01:55:35;;;;;;;12.68;9.50;;;14.20;87.10;;;;;;5065106;28;20202;-73
2021/05/14 01:58:02;;;;;;;14.25;9.75;;;14.20;86.40;;;;;;5080920;28;20203;-73
2021/05/14 02:00:29;;;;;;;13.93;9.23;;;14.20;86.70;;;;;;5083306;28;20220;-74
2021/05/14 02:02:55;;;;;;;11.95;9.27;;;14.10;86.80;;;;;;5081496;28;20605;-73
2021/05/14 02:05:22;;;;;;;14.63;9.40;;;14.10;87.00;;;;;;5081195;28;20205;-73
2021/05/14 02:07:48;;;;;;;12.40;8.93;;;14.10;87.10;;;;;;5080118;28;20212;-73
2021/05/14 02:10:15;;;;;;;14.93;9.77;;;14.10;87.20;;;;;;5079173;28;20206;-72
2021/05/14 02:12:43;;;;;;;12.25;9.45;;;14.10;87.30;;;;;;5082859;28;20201;-73
2021/05/14 02:15:11;;;;;;;14.63;9.43;;;14.10;88.20;;;;;;5083330;28;20216;-76
2021/05/14 02:17:38;;;;;;;12.25;9.38;;;14.10;87.70;;;;;;5066107;28;20320;-74
2021/05/14 02:20:06;;;;;;;13.70;9.32;;;14.10;87.80;;;;;;5081826;28;20266;-71
2021/05/14 02:22:33;;;;;;;13.27;10.10;;;14.10;87.80;;;;;;5082264;28;20547;-73
2021/05/14 02:25:00;;;;;;;13.77;10.50;;;14.10;88.00;;;;;;5081486;28;20711;-71
2021/05/14 02:27:26;;;;;;;11.90;9.93;;;14.00;88.10;;;;;;5064339;28;20206;-74
2021/05/14 02:29:54;;;;;;;12.30;9.48;;;14.00;88.30;;;;;;5084115;28;20194;-72
2021/05/14 02:32:21;;;;;;;13.45;10.48;;;13.90;88.40;;;;;;5084812;28;20209;-74
2021/05/14 02:34:48;;;;;;;15.05;10.65;;;13.90;88.70;;;;;;5085653;28;20210;-72
2021/05/14 02:37:15;;;;;;;14.85;9.90;;;13.90;89.00;;;;;;5085192;28;20213;-71
2021/05/14 02:39:41;;;;;;;14.27;10.00;;;13.90;89.30;;;;;;5085275;28;20217;-73
2021/05/14 02:42:08;;;;;;;16.42;10.05;;;13.80;89.50;;;;;;5064503;28;20249;-72
2021/05/14 02:44:35;;;;;;;16.45;10.50;;;13.80;89.80;;;;;;5085667;28;20221;-73
2021/05/14 02:47:03;;;;;;;14.60;10.40;;;13.80;89.80;;;;;;5083598;28;20285;-73
2021/05/14 02:49:29;;;;;;;14.13;10.13;;;13.90;89.90;;;;;;5084597;28;20584;-74
2021/05/14 02:51:56;;;;;;;11.55;9.80;;;13.90;90.00;;;;;;5068090;28;20212;-72
2021/05/14 02:54:22;;;;;;;13.88;10.63;;;13.90;90.00;;;;;;5080686;28;20216;-73
2021/05/14 02:56:49;;;;;;;13.27;10.20;;;13.90;90.00;;;;;;5066660;28;20206;-74
2021/05/14 02:59:15;;;;;;;14.27;10.20;;;13.90;90.10;;;;;;5087951;28;20221;-72
2021/05/14 03:01:42;;;;;;;13.85;10.25;;;13.90;90.10;;;;;;5085202;28;20196;-72
2021/05/14 03:04:09;;;;;;;12.25;10.27;;;13.90;90.20;;;;;;5071951;28;20209;-73
2021/05/14 03:06:35;;;;;;;13.90;10.35;;;13.90;90.20;;;;;;5087212;28;20586;-72
2021/05/14 03:09:03;;;;;;;12.23;10.13;;;13.90;90.10;;;;;;5088012;28;20194;-74
2021/05/14 03:11:29;;;;;;;13.75;10.82;;;13.90;90.30;;;;;;5086551;28;21894;-72
2021/05/14 03:13:56;;;;;;;11.70;9.88;;;13.90;90.30;;;;;;5084105;28;20205;-73
2021/05/14 03:16:22;;;;;;;14.82;10.48;;;13.80;90.40;;;;;;5081582;28;20277;-74
2021/05/14 03:18:48;;;;;;;12.45;9.10;;;13.80;90.50;;;;;;5084147;28;20218;-73
2021/05/14 03:21:16;;;;;;;12.35;9.50;;;13.80;90.60;;;;;;5087837;28;20209;-72
2021/05/14 03:23:42;;;;;;;11.90;9.60;;;13.90;90.70;;;;;;5084175;28;20204;-72
2021/05/14 03:26:09;;;;;;;11.77;9.27;;;13.90;90.60;;;;;;5085149;28;20208;-73
2021/05/14 03:28:35;;;;;;;10.77;9.07;;;13.90;90.60;;;;;;5086726;28;20252;-72
2021/05/14 03:31:01;;;;;;;15.90;9.80;;;13.90;90.60;;;;;;5088298;28;20233;-72
2021/05/14 03:33:28;;;;;;;10.98;8.98;;;13.90;90.60;;;;;;5085628;28;20209;-72
2021/05/14 03:35:54;;;;;;;11.05;8.85;;;13.90;90.70;;;;;;5083823;28;20205;-72
2021/05/14 03:38:22;;;;;;;12.52;8.82;;;13.90;90.70;;;;;;5086341;28;22413;-72
2021/05/14 03:40:49;;;;;;;11.50;8.57;;;13.90;90.70;;;;;;5081232;28;20218;-72
2021/05/14 03:43:16;;;;;;;11.75;9.07;;;13.90;90.80;;;;;;5069229;28;20197;-73
2021/05/14 03:45:42;;;;;;;13.20;9.02;;;13.80;90.80;;;;;;5088310;28;20204;-72
2021/05/14 03:48:18;;;;;;;13.55;9.02;;;13.90;90.90;;;;;;5083708;28;20658;-73
2021/05/14 03:50:45;;;;;;;12.88;9.13;;;13.80;90.80;;;;;;5084025;28;20198;-74
2021/05/14 03:53:11;;;;;;;12.60;9.05;;;13.80;90.90;;;;;;5086930;28;20207;-73
2021/05/14 03:55:39;;;;;;;10.70;8.88;;;13.70;91.10;;;;;;5088110;28;20283;-72
2021/05/14 03:58:05;;;;;;;11.50;8.85;;;13.70;91.20;;;;;;5065841;28;20201;-72
2021/05/14 04:00:31;;;;;;;12.32;9.32;;;13.70;91.30;;;;;;5088237;28;20213;-73
2021/05/14 04:02:58;;;;;;;12.52;9.10;;;13.70;91.30;;;;;;5088539;28;20232;-74
2021/05/14 04:05:25;;;;;;;11.40;8.65;;;13.70;91.30;;;;;;5069790;28;20275;-72
2021/05/14 04:07:52;;;;;;;11.30;8.77;;;13.70;91.40;;;;;;5067587;28;20193;-74
2021/05/14 04:10:25;;;;;;;12.20;8.98;;;13.70;91.40;;;;;;5084444;28;20229;-72
2021/05/14 04:15:36;;;;;;;12.15;9.05;;;13.70;91.40;;;;;;5103094;28;20690;-74
2021/05/14 04:18:03;;;;;;;11.93;8.32;;;13.70;91.40;;;;;;5069388;28;20383;-74
2021/05/14 04:20:29;;;;;;;12.13;8.70;;;13.70;91.50;;;;;;5084189;28;20279;-75
2021/05/14 04:22:56;;;;;;;11.27;9.27;;;13.70;91.60;;;;;;5064527;28;20202;-73
2021/05/14 04:25:22;;;;;;;10.35;8.10;;;13.70;91.60;;;;;;5076775;28;20590;-71
2021/05/14 04:27:49;;;;;;;11.95;8.63;;;13.70;91.60;;;;;;5083246;28;20227;-73
2021/05/14 04:30:18;;;;;;;11.32;8.90;;;13.70;91.60;;;;;;5081064;28;20378;-72
2021/05/14 04:32:44;;;;;;;10.10;8.27;;;13.60;91.60;;;;;;5078920;28;20189;-71
2021/05/14 04:35:11;;;;;;;11.80;9.10;;;13.60;91.70;;;;;;5084451;28;20194;-71
2021/05/14 04:37:37;;;;;;;10.13;8.27;;;13.50;91.80;;;;;;5085907;28;22034;-72
2021/05/14 04:40:05;;;;;;;14.30;8.48;;;13.50;91.80;;;;;;5083323;28;20583;-71
2021/05/14 04:42:31;;;;;;;11.63;8.60;;;13.50;92.20;;;;;;5082126;28;20675;-70
2021/05/14 04:44:57;;;;;;;13.25;8.85;;;13.50;91.90;;;;;;5081093;28;20190;-69
2021/05/14 04:47:25;;;;;;;9.98;8.30;;;13.40;91.90;;;;;;5085761;28;20688;-71
2021/05/14 04:49:51;;;;;;;11.73;8.40;;;13.40;91.90;;;;;;5084165;28;20194;-71
2021/05/14 04:52:22;;;;;;;12.73;8.52;;;13.50;92.00;;;;;;5084255;28;20202;-71
2021/05/14 04:54:49;;;;;;;14.52;8.90;;;13.40;92.00;;;;;;5078231;28;20214;-71
2021/05/14 04:57:15;;;;;;;11.85;8.65;;;13.40;92.00;;;;;;5087190;28;20202;-70
2021/05/14 04:59:42;;;;;;;14.90;9.23;;;13.40;92.10;;;;;;5080875;28;20210;-72
2021/05/14 05:02:09;;;;;;;12.93;9.32;;;13.40;92.20;;;;;;5086966;28;20563;-71
2021/05/14 05:04:37;;;;;;;12.05;9.82;;;13.50;92.30;;;;;;5083551;28;20447;-70
2021/05/14 05:07:04;;;;;;;13.95;10.07;;;13.90;92.30;;;;;;5086095;28;20209;-70
2021/05/14 05:09:31;;;;;;;13.18;9.88;;;13.80;92.20;;;;;;5081863;28;20281;-71
2021/05/14 05:11:57;;;;;;;14.23;9.57;;;13.70;92.30;;;;;;5085983;28;20566;-71
2021/05/14 05:14:23;;;;;;;10.55;9.38;;;13.60;92.40;;;;;;5081561;28;20190;-70
2021/05/14 05:16:50;;;;;;;11.82;9.38;;;13.50;92.50;;;;;;5082791;28;20258;-71
2021/05/14 05:19:16;;;;;;;16.90;10.07;;;13.50;92.60;;;;;;5081308;28;20243;-72
2021/05/14 05:21:44;;;;;;;11.73;9.70;;;13.50;92.90;;;;;;5082381;28;20206;-70
2021/05/14 05:24:10;;;;;;;14.93;10.02;;;13.50;93.10;;;;;;5082360;28;20206;-72
2021/05/14 05:26:37;;;;;;;14.93;9.93;;;13.50;93.70;;;;;;5083954;28;20212;-71
2021/05/14 05:29:03;;;;;;;13.77;10.48;;;13.50;93.60;;;;;;5082074;28;20206;-72
2021/05/14 05:31:30;;;;;;;11.90;9.90;;;13.50;93.70;;;;;;5085460;28;20221;-71
2021/05/14 05:33:56;;;;;;;14.82;10.98;;;13.50;93.90;;;;;;5082243;28;20682;-73
2021/05/14 05:36:23;;;;;;;12.18;10.25;;;13.40;94.10;;;;;;5083616;28;20220;-73
2021/05/14 05:38:51;;;;;;;13.93;10.52;;;13.40;94.30;;;;;;5067776;28;20254;-72
2021/05/14 05:41:17;;;;;;;13.90;10.15;;;13.40;94.60;;;;;;5084668;28;20586;-73
2021/05/14 05:43:44;;;;;;;12.27;8.85;;;13.40;94.70;;;;;;5086300;28;20285;-73
2021/05/14 05:46:10;;;;;;;14.68;8.80;;;13.40;94.90;;;;;;5083050;28;20216;-73
2021/05/14 05:48:37;;;;;;;14.63;9.40;;;13.30;94.90;;;;;;5085909;28;20284;-73
2021/05/14 05:51:04;;;;;;;13.43;9.15;;;13.30;95.00;;;;;;5085434;28;20282;-72
2021/05/14 05:53:30;;;;;;;12.30;8.60;;;13.30;95.20;;;;;;5098690;28;20213;-73
2021/05/14 05:55:57;;;;;;;12.82;8.68;;;13.30;95.30;;;;;;5083321;28;20206;-73
2021/05/14 05:58:24;;;;;;;15.30;8.90;;;13.30;95.40;;;;;;5067689;28;21981;-73
2021/05/14 06:00:50;;;;;;;12.20;9.07;;;13.20;95.40;;;;;;5086636;28;20227;-73
2021/05/14 06:03:17;;;;;;;11.95;9.32;;;13.20;95.50;;;;;;5083937;28;20220;-73
2021/05/14 06:05:43;;;;;;;16.15;9.48;;;13.20;95.60;;;;;;5063881;28;20682;-75
2021/05/14 06:08:10;;;;;;;12.73;9.05;;;13.20;95.70;;;;;;5077644;28;20201;-74
2021/05/14 06:10:36;;;;;;;13.10;9.77;;;13.20;95.70;;;;;;5092447;28;20226;-74
2021/05/14 06:13:04;;;;;;;12.68;9.93;;;13.20;95.80;;;;;;5078641;28;20209;-74
2021/05/14 06:15:30;;;;;;;14.63;10.47;;;13.20;95.80;;;;;;5075044;28;20936;-75
2021/05/14 06:17:56;;;;;;;14.00;10.80;;;13.60;96.10;;;;;;5057061;28;20454;-74
2021/05/14 06:20:25;;;;;;;14.02;10.57;;;14.00;95.40;;;;;;5060730;28;20421;-73
2021/05/14 06:22:51;;;;;;;14.93;10.90;;;14.20;94.80;;;;;;5078142;28;20455;-75
2021/05/14 06:25:18;;;;;;;13.57;10.38;;;14.30;94.10;;;;;;5074965;28;20452;-72
2021/05/14 06:27:45;;;;;;;13.13;10.80;;;14.40;93.80;;;;;;5078265;28;20445;-73
2021/05/14 06:30:14;;;;;;;14.60;11.00;;;14.50;94.00;;;;;;5078646;28;20413;-74
2021/05/14 06:32:41;;;;;;;14.82;10.38;;;14.50;93.80;;;;;;5075865;28;20426;-73
2021/05/14 06:35:08;;;;;;;13.80;10.43;;;14.60;94.00;;;;;;5088437;28;20426;-75
2021/05/14 06:37:36;;;;;;;12.48;10.55;;;14.70;94.00;;;;;;5093133;28;20533;-74
2021/05/14 06:40:04;;;;;;;16.55;10.32;;;14.80;94.00;;;;;;5093276;28;20436;-74
2021/05/14 06:42:31;;;;;;;14.43;10.57;;;14.80;93.10;;;;;;5093474;28;20418;-75
2021/05/14 06:44:57;;;;;;;13.03;10.47;;;14.80;92.90;;;;;;5093065;28;20421;-73
2021/05/14 06:47:24;;;;;;;14.57;11.03;;;14.80;92.80;;;;;;5092914;28;20498;-76
2021/05/14 06:49:51;;;;;;;15.13;11.00;;;14.80;92.90;;;;;;5083058;28;20444;-74
2021/05/14 06:52:18;;;;;;;14.00;10.37;;;14.80;93.00;;;;;;5065176;28;21051;-74
2021/05/14 06:54:44;;;;;;;19.05;15.25;;;14.80;93.00;;;;;;5084800;28;21900;-75
2021/05/14 06:57:11;;;;;;;13.20;10.35;;;14.90;93.00;;;;;;5085399;28;20455;-73
2021/05/14 06:59:37;;;;;;;13.07;10.82;;;14.90;92.90;;;;;;5084901;28;20433;-75
2021/05/14 07:02:04;;;;;;;12.57;10.43;;;15.00;93.30;;;;;;5082895;28;20928;-75
2021/05/14 07:04:31;;;;;;;13.38;10.40;;;15.00;93.00;;;;;;5083880;28;20419;-74
2021/05/14 07:06:58;;;;;;;15.85;10.45;;;15.00;92.50;;;;;;5065073;28;20415;-74
2021/05/14 07:09:24;;;;;;;14.13;9.82;;;15.00;92.40;;;;;;5086105;28;20421;-73
2021/05/14 07:11:50;;;;;;;15.07;10.38;;;15.00;92.10;;;;;;5084812;28;20446;-73
2021/05/14 07:14:17;;;;;;;16.65;10.82;;;15.00;92.30;;;;;;5079765;28;20423;-71
2021/05/14 07:16:44;;;;;;;16.38;10.13;;;15.10;92.80;;;;;;5083283;28;20501;-73
2021/05/14 07:19:13;;;;;;;12.50;10.57;;;15.10;92.70;;;;;;5087532;28;20490;-72
2021/05/14 07:21:40;;;;;;;13.40;10.20;;;15.10;92.20;;;;;;5091881;28;20418;-71
2021/05/14 07:24:08;;;;;;;14.35;10.43;;;15.10;91.70;;;;;;5093411;28;20418;-72
2021/05/14 07:26:35;;;;;;;12.65;10.73;;;15.10;91.60;;;;;;5093727;28;20459;-73
2021/05/14 07:29:03;;;;;;;14.07;9.75;;;15.20;92.20;;;;;;5091167;28;20563;-73
2021/05/14 07:31:29;;;;;;;18.98;13.10;;;15.20;91.60;;;;;;5088448;28;20528;-73
2021/05/14 07:33:56;;;;;;;13.10;10.10;;;15.20;91.60;;;;;;5090884;28;20436;-74
2021/05/14 07:36:24;;;;;;;14.02;10.35;;;15.20;91.40;;;;;;5091998;28;20429;-74
2021/05/14 07:38:51;;;;;;;13.85;10.70;;;15.30;91.10;;;;;;5104589;28;20477;-77
2021/05/14 07:41:18;;;;;;;14.98;11.45;;;15.20;91.40;;;;;;5082871;28;20422;-74
2021/05/14 07:43:44;;;;;;;13.07;10.77;;;15.30;91.70;;;;;;5086630;28;20422;-72
2021/05/14 07:46:11;;;;;;;14.13;11.10;;;15.30;91.90;;;;;;5084365;28;20429;-74
2021/05/14 07:48:37;;;;;;;12.45;10.45;;;15.30;92.10;;;;;;5085054;28;20421;-72
2021/05/14 07:51:04;;;;;;;15.60;11.20;;;15.40;91.00;;;;;;5086610;28;20504;-73
2021/05/14 07:53:30;;;;;;;13.23;11.02;;;15.40;91.60;;;;;;5085636;28;20509;-75
2021/05/14 07:55:58;;;;;;;14.88;10.77;;;15.40;91.70;;;;;;5066238;28;20931;-72
2021/05/14 07:58:24;;;;;;;14.40;10.20;;;15.40;91.30;;;;;;5084762;28;20474;-72
2021/05/14 08:00:51;;;;;;;12.40;10.50;;;15.40;91.70;;;;;;5087082;28;20418;-73
2021/05/14 08:03:18;;;;;;;13.07;10.87;;;15.50;91.10;;;;;;5084529;28;20425;-73
2021/05/14 08:05:46;;;;;;;16.52;10.80;;;15.50;91.20;;;;;;5103399;28;20468;-72
2021/05/14 08:08:15;;;;;;;15.57;10.95;;;15.50;90.90;;;;;;5085226;28;20508;-72
2021/05/14 08:10:42;;;;;;;15.30;11.18;;;15.50;90.80;;;;;;5084176;28;20574;-72
2021/05/14 08:13:09;;;;;;;14.23;10.40;;;15.60;90.60;;;;;;5085731;28;20689;-71
2021/05/14 08:15:35;;;;;;;15.83;12.50;;;15.50;90.30;;;;;;5084810;28;20429;-71
2021/05/14 08:18:02;;;;;;;13.82;10.50;;;15.60;90.60;;;;;;5067272;28;20433;-72
2021/05/14 08:20:28;;;;;;;13.18;9.68;;;15.60;90.80;;;;;;5084937;28;20520;-72
2021/05/14 08:22:55;;;;;;;12.32;10.02;;;15.60;90.50;;;;;;5085404;28;20581;-72
2021/05/14 08:25:21;;;;;;;12.88;10.23;;;15.60;90.50;;;;;;5084008;28;20417;-72
2021/05/14 08:27:47;;;;;;;12.15;9.93;;;15.60;90.00;;;;;;5083176;28;20424;-72
2021/05/14 08:30:16;;;;;;;11.80;10.05;;;15.60;90.30;;;;;;5068170;28;20422;-71
2021/05/14 08:32:43;;;;;;;13.00;10.45;;;15.60;90.50;;;;;;5081734;28;20509;-71
2021/05/14 08:35:10;;;;;;;12.00;10.20;;;15.60;90.50;;;;;;5084466;28;20594;-72
2021/05/14 08:37:39;;;;;;;13.75;9.98;;;15.70;90.40;;;;;;5086586;28;20418;-73
2021/05/14 08:40:08;;;;;;;11.27;9.73;;;15.70;90.00;;;;;;5067083;28;20426;-71
2021/05/14 08:42:38;;;;;;;12.32;9.65;;;15.60;89.40;;;;;;5086411;28;20436;-71
2021/05/14 08:45:07;;;;;;;12.98;9.80;;;15.70;90.10;;;;;;5084227;28;20508;-72
2021/05/14 08:47:36;;;;;;;13.57;10.35;;;15.70;89.00;;;;;;5084180;28;20429;-71
2021/05/14 08:50:04;;;;;;;13.20;10.77;;;15.60;89.00;;;;;;5082699;28;20426;-71
2021/05/14 08:52:33;;;;;;;15.80;11.43;;;15.60;90.10;;;;;;5084692;28;20429;-71
2021/05/14 08:55:01;;;;;;;13.73;10.90;;;15.70;90.60;;;;;;5082844;28;20877;-71
2021/05/14 08:57:27;;;;;;;18.07;10.63;;;15.70;90.30;;;;;;5084304;28;20437;-72
2021/05/14 08:59:54;;;;;;;13.85;10.52;;;15.80;89.30;;;;;;5083890;28;20434;-71
2021/05/14 09:02:20;;;;;;;12.65;9.77;;;15.80;89.90;;;;;;5085348;28;20426;-72
2021/05/14 09:04:48;;;;;;;13.00;9.38;;;15.80;89.40;;;;;;5085163;28;20429;-72
2021/05/14 09:07:16;;;;;;;13.80;9.37;;;15.90;88.20;;;;;;5084125;28;20478;-71
2021/05/14 09:10:03;;;;;;;13.48;10.25;;;16.00;89.00;;;;;;5085372;28;20417;-72
2021/05/14 09:12:33;;;;;;;11.00;8.73;;;16.00;88.80;;;;;;5083544;28;20436;-72
2021/05/14 09:14:59;;;;;;;11.73;8.75;;;16.10;87.40;;;;;;5079043;28;20901;-71
2021/05/14 09:17:27;;;;;;;12.85;8.93;;;16.10;86.60;;;;;;5082292;28;20423;-72
2021/05/14 09:19:54;;;;;;;12.43;8.55;;;16.30;85.80;;;;;;5082319;28;20572;-72
2021/05/14 09:22:22;;;;;;;10.73;8.55;;;16.30;85.60;;;;;;5082537;28;20421;-72
2021/05/14 09:24:55;;;;;;;13.57;9.00;;;16.40;86.40;;;;;;5085349;28;20422;-72
2021/05/14 09:27:29;;;;;;;10.70;7.90;;;16.40;86.40;;;;;;5076881;28;21525;-72
2021/05/14 09:29:57;;;;;;;9.65;7.00;;;16.50;85.30;;;;;;5078625;28;20417;-71
2021/05/14 09:32:26;;;;;;;9.10;6.80;;;16.50;84.10;;;;;;5083407;28;20909;-72
2021/05/14 09:34:55;;;;;;;11.00;6.90;;;16.60;83.30;;;;;;5082925;28;20477;-71
2021/05/14 09:37:24;;;;;;;10.38;6.68;;;16.70;83.00;;;;;;5085023;28;20456;-72
2021/05/14 09:40:11;;;;;;;12.68;7.47;;;16.70;81.90;;;;;;5065184;28;20425;-73
2021/05/14 09:42:37;;;;;;;10.20;7.60;;;16.70;81.20;;;;;;5083430;28;20438;-72
2021/05/14 09:45:13;;;;;;;9.43;6.80;;;16.70;81.20;;;;;;5082057;28;20432;-72
2021/05/14 09:47:40;;;;;;;11.27;7.10;;;16.70;81.40;;;;;;5063550;28;20426;-73
2021/05/14 09:50:33;;;;;;;11.38;7.05;;;16.70;80.50;;;;;;5083148;28;20429;-72
2021/05/14 09:53:07;;;;;;;8.55;6.03;;;16.70;81.40;;;;;;5084161;28;20838;-72
2021/05/14 09:55:35;;;;;;;10.43;6.15;;;16.80;80.50;;;;;;5083711;28;20409;-72
2021/05/14 09:58:09;;;;;;;10.20;6.68;;;16.70;78.20;;;;;;5083004;28;21323;-72
2021/05/14 10:00:35;;;;;;;8.32;6.43;;;16.70;79.20;;;;;;5083113;28;20426;-72
2021/05/14 10:03:02;;;;;;;8.27;5.97;;;16.70;78.70;;;;;;5081724;28;20466;-72
2021/05/14 10:05:29;;;;;;;10.48;6.20;;;16.70;78.80;;;;;;5100057;28;20449;-72
2021/05/14 10:08:02;;;;;;;9.25;5.95;;;16.70;79.00;;;;;;5084467;28;20436;-72
2021/05/14 10:10:28;;;;;;;8.57;6.00;;;16.80;78.90;;;;;;5079834;28;20455;-72
2021/05/14 10:12:55;;;;;;;10.07;6.57;;;16.80;78.90;;;;;;5080833;28;20426;-72
2021/05/14 10:15:22;;;;;;;10.88;6.22;;;16.80;77.10;;;;;;5082388;28;20784;-70
2021/05/14 10:17:51;;;;;;;13.10;7.85;;;16.90;77.30;;;;;;5082385;28;20426;-70
2021/05/14 10:20:19;;;;;;;11.50;7.00;;;16.90;77.70;;;;;;5064193;28;20416;-71
2021/05/14 10:22:50;;;;;;;9.60;6.43;;;17.00;76.10;;;;;;5083214;28;20520;-71
2021/05/14 10:25:43;;;;;;;12.60;7.93;;;17.10;76.80;;;;;;5080739;28;20510;-70
2021/05/14 10:28:12;;;;;;;16.90;9.37;;;17.20;76.50;;;;;;5073242;28;20765;-70
2021/05/14 10:31:14;;;;;;;11.18;8.25;;;17.30;76.50;;;;;;5080889;28;20411;-72
2021/05/14 10:33:42;;;;;;;19.67;12.90;;;17.40;75.70;;;;;;5075249;28;20426;-71
2021/05/14 10:36:32;;;;;;;15.88;10.40;;;17.50;74.20;;;;;;5083133;28;20440;-71
2021/05/14 10:39:04;;;;;;;14.20;9.48;;;17.60;74.90;;;;;;5081410;28;20437;-74
2021/05/14 10:41:31;;;;;;;17.70;11.30;;;17.70;74.70;;;;;;5087557;28;20426;-70
2021/05/14 10:44:03;;;;;;;20.25;12.15;;;17.80;73.90;;;;;;5100498;28;21131;-72
2021/05/14 10:46:30;;;;;;;17.25;11.00;;;17.90;73.20;;;;;;5087879;28;20410;-71
2021/05/14 10:49:01;;;;;;;15.75;10.00;;;18.00;73.00;;;;;;5082203;28;20491;-71
2021/05/14 10:51:59;;;;;;;18.00;11.18;;;18.00;72.30;;;;;;5086530;28;20425;-70
2021/05/14 10:54:51;;;;;;;18.05;10.40;;;18.10;72.80;;;;;;5085501;28;20440;-71
2021/05/14 10:57:48;;;;;;;16.65;9.82;;;18.20;71.30;;;;;;5086472;28;20953;-70
2021/05/14 11:00:32;;;;;;;15.35;10.07;;;18.30;72.20;;;;;;5083436;28;20440;-72
2021/05/14 11:03:19;;;;;;;18.00;12.40;;;18.40;71.80;;;;;;5086038;28;20501;-70
2021/05/14 11:05:48;;;;;;;19.15;12.20;;;18.50;70.60;;;;;;5083494;28;20440;-71
2021/05/14 11:08:45;;;;;;;19.40;12.52;;;18.60;71.30;;;;;;5084035;28;20438;-71
2021/05/14 11:11:13;;;;;;;18.38;12.60;;;18.80;70.60;;;;;;5083259;28;20425;-71
2021/05/14 11:13:46;;;;;;;20.20;12.50;;;18.90;69.70;;;;;;5099267;28;20705;-71
2021/05/14 11:16:46;;;;;;;20.13;13.00;;;19.00;69.20;;;;;;5068961;28;20499;-72
2021/05/14 11:19:18;;;;;;;19.45;12.45;;;19.20;69.20;;;;;;5084275;28;20425;-71
2021/05/14 11:22:05;;;;;;;19.02;13.50;;;19.30;67.60;;;;;;5089094;28;20555;-71
2021/05/14 11:24:34;;;;;;;23.92;15.15;;;19.40;66.70;;;;;;5085349;28;20798;-70
2021/05/14 11:27:07;;;;;;;22.05;14.07;;;19.50;66.90;;;;;;5091119;28;20414;-71
2021/05/14 11:29:44;;;;;;;18.45;13.23;;;19.60;66.90;;;;;;5088987;28;20436;-71
2021/05/14 11:32:31;;;;;;;22.52;14.57;;;19.60;66.10;;;;;;5088802;28;20500;-71
2021/05/14 11:35:01;;;;;;;20.55;14.20;;;19.70;64.60;;;;;;5088014;28;20421;-70
2021/05/14 11:37:29;;;;;;;20.30;14.00;;;19.70;65.40;;;;;;5091055;28;20427;-70
2021/05/14 11:39:56;;;;;;;18.98;13.38;;;19.70;64.80;;;;;;5087566;28;20436;-71
2021/05/14 11:42:25;;;;;;;19.33;13.55;;;19.80;64.90;;;;;;5090334;28;20405;-70
2021/05/14 11:45:00;;;;;;;18.43;13.27;;;19.80;64.70;;;;;;5087790;28;20429;-70
2021/05/14 11:47:27;;;;;;;20.10;13.93;;;19.70;65.10;;;;;;5088698;28;20478;-72
2021/05/14 11:49:55;;;;;;;21.58;13.98;;;19.70;64.80;;;;;;5085632;28;20435;-70
2021/05/14 11:52:38;;;;;;;22.23;14.85;;;19.70;64.20;;;;;;5088833;28;20421;-70
2021/05/14 11:55:08;;;;;;;22.17;15.38;;;19.80;64.40;;;;;;5088500;28;20434;-71
2021/05/14 11:57:34;;;;;;;23.20;17.15;;;19.80;63.90;;;;;;5090336;28;20429;-72
2021/05/14 12:00:04;;;;;;;23.83;16.58;;;19.90;64.30;;;;;;5071290;28;20449;-71
2021/05/14 12:02:36;;;;;;;23.70;16.17;;;19.90;63.40;;;;;;5089895;28;20963;-71
2021/05/14 12:05:03;;;;;;;23.65;14.88;;;19.90;63.40;;;;;;5084979;28;20419;-71
2021/05/14 12:07:29;;;;;;;18.58;14.15;;;19.80;64.50;;;;;;5072136;28;20424;-71
2021/05/14 12:10:00;;;;;;;21.55;14.30;;;19.90;65.80;;;;;;5067202;28;20438;-70
2021/05/14 12:12:27;;;;;;;20.42;14.80;;;20.00;65.60;;;;;;5090573;28;20427;-70
2021/05/14 12:15:10;;;;;;;17.50;14.00;;;20.20;64.70;;;;;;5071567;28;20418;-70
2021/05/14 12:17:37;;;;;;;20.87;14.00;;;20.40;64.30;;;;;;5102728;27;20475;-71
2021/05/14 12:20:18;;;;;;;18.65;13.13;;;20.60;63.80;;;;;;5088602;28;20808;-71
2021/05/14 12:22:45;;;;;;;20.00;13.38;;;20.70;62.70;;;;;;5089553;28;20905;-72
2021/05/14 12:25:13;;;;;;;19.83;13.30;;;20.80;61.20;;;;;;5066654;28;20421;-70
2021/05/14 12:27:42;;;;;;;19.13;13.80;;;20.80;60.70;;;;;;5089911;28;20449;-70
2021/05/14 12:30:10;;;;;;;17.87;13.23;;;20.70;60.50;;;;;;5088553;28;20428;-70
2021/05/14 12:32:38;;;;;;;19.30;12.90;;;20.70;60.90;;;;;;5089927;28;20410;-71
2021/05/14 12:35:05;;;;;;;21.98;14.07;;;20.60;60.70;;;;;;5070507;28;20511;-71
2021/05/14 12:37:32;;;;;;;20.30;14.30;;;20.50;60.90;;;;;;5089351;28;20424;-70
2021/05/14 12:39:58;;;;;;;21.65;14.30;;;20.60;60.90;;;;;;5087993;28;20528;-72
2021/05/14 12:42:26;;;;;;;20.13;14.70;;;20.60;61.20;;;;;;5088897;28;20417;-70